sensor_id;sensor_type;location;lat;lon;timestamp;pressure;altitude;pressure_sealevel;temperature;humidity
21276;BME280;36472;52.170;20.884;2023-04-19T00:00:07;100815.25;;;12.10;70.52
21276;BME280;36472;52.170;20.884;2023-04-19T00:02:57;100807.22;;;11.84;73.15
21276;BME280;36472;52.170;20.884;2023-04-19T00:05:27;100803.28;;;11.63;77.04
21276;BME280;36472;52.170;20.884;2023-04-19T00:07:56;100804.84;;;11.38;80.21
21276;BME280;36472;52.170;20.884;2023-04-19T00:10:27;100804.09;;;11.07;81.31
21276;BME280;36472;52.170;20.884;2023-04-19T00:12:55;100797.88;;;10.94;83.22
21276;BME280;36472;52.170;20.884;2023-04-19T00:15:24;100797.84;;;10.79;84.36
21276;BME280;36472;52.170;20.884;2023-04-19T00:17:53;100795.88;;;10.69;85.87
21276;BME280;36472;52.170;20.884;2023-04-19T00:20:23;100795.22;;;10.65;86.93
21276;BME280;36472;52.170;20.884;2023-04-19T00:22:52;100792.75;;;10.47;87.54
21276;BME280;36472;52.170;20.884;2023-04-19T00:25:21;100795.06;;;10.38;88.24
21276;BME280;36472;52.170;20.884;2023-04-19T00:27:51;100791.50;;;10.39;88.56
21276;BME280;36472;52.170;20.884;2023-04-19T00:30:20;100793.47;;;10.35;88.56
21276;BME280;36472;52.170;20.884;2023-04-19T00:32:50;100788.03;;;10.22;87.51
21276;BME280;36472;52.170;20.884;2023-04-19T00:35:20;100786.03;;;10.11;87.59
21276;BME280;36472;52.170;20.884;2023-04-19T00:37:48;100786.28;;;10.07;88.09
21276;BME280;36472;52.170;20.884;2023-04-19T00:40:17;100782.16;;;10.03;89.42
21276;BME280;36472;52.170;20.884;2023-04-19T00:42:46;100788.56;;;9.97;89.66
21276;BME280;36472;52.170;20.884;2023-04-19T00:45:17;100777.06;;;9.84;90.25
21276;BME280;36472;52.170;20.884;2023-04-19T00:47:46;100770.63;;;9.73;91.30
21276;BME280;36472;52.170;20.884;2023-04-19T00:50:15;100775.56;;;9.64;92.00
21276;BME280;36472;52.170;20.884;2023-04-19T00:52:45;100774.22;;;9.57;93.66
21276;BME280;36472;52.170;20.884;2023-04-19T00:55:14;100771.16;;;9.64;94.85
21276;BME280;36472;52.170;20.884;2023-04-19T00:57:43;100761.59;;;9.63;94.54
21276;BME280;36472;52.170;20.884;2023-04-19T01:00:13;100762.78;;;9.58;95.02
21276;BME280;36472;52.170;20.884;2023-04-19T01:02:45;100761.00;;;9.58;95.95
21276;BME280;36472;52.170;20.884;2023-04-19T01:05:15;100755.84;;;9.57;96.74
21276;BME280;36472;52.170;20.884;2023-04-19T01:07:44;100750.69;;;9.55;97.16
21276;BME280;36472;52.170;20.884;2023-04-19T01:10:14;100751.69;;;9.52;98.02
21276;BME280;36472;52.170;20.884;2023-04-19T01:12:43;100750.94;;;9.50;98.38
21276;BME280;36472;52.170;20.884;2023-04-19T01:15:13;100748.22;;;9.52;99.05
21276;BME280;36472;52.170;20.884;2023-04-19T01:17:41;100743.06;;;9.50;99.51
21276;BME280;36472;52.170;20.884;2023-04-19T01:20:12;100745.94;;;9.46;99.93
21276;BME280;36472;52.170;20.884;2023-04-19T01:22:43;100744.59;;;9.39;100.00
21276;BME280;36472;52.170;20.884;2023-04-19T01:25:12;100737.38;;;9.42;100.00
21276;BME280;36472;52.170;20.884;2023-04-19T01:27:42;100738.34;;;9.41;100.00
21276;BME280;36472;52.170;20.884;2023-04-19T01:30:12;100735.00;;;9.38;100.00
21276;BME280;36472;52.170;20.884;2023-04-19T01:32:41;100736.88;;;9.35;100.00
21276;BME280;36472;52.170;20.884;2023-04-19T01:35:10;100723.00;;;9.33;100.00
21276;BME280;36472;52.170;20.884;2023-04-19T01:37:39;100723.25;;;9.29;100.00
21276;BME280;36472;52.170;20.884;2023-04-19T01:40:12;100736.72;;;9.23;100.00
21276;BME280;36472;52.170;20.884;2023-04-19T01:42:41;100735.75;;;9.24;100.00
21276;BME280;36472;52.170;20.884;2023-04-19T01:45:10;100731.53;;;9.21;100.00
21276;BME280;36472;52.170;20.884;2023-04-19T01:47:39;100734.31;;;9.18;100.00
21276;BME280;36472;52.170;20.884;2023-04-19T01:50:08;100739.41;;;9.21;100.00
21276;BME280;36472;52.170;20.884;2023-04-19T01:52:37;100732.75;;;9.31;100.00
21276;BME280;36472;52.170;20.884;2023-04-19T01:55:07;100734.41;;;9.32;100.00
21276;BME280;36472;52.170;20.884;2023-04-19T01:57:37;100725.78;;;9.30;100.00
21276;BME280;36472;52.170;20.884;2023-04-19T02:00:09;100732.66;;;9.33;100.00
21276;BME280;36472;52.170;20.884;2023-04-19T02:02:41;100732.91;;;9.28;100.00
21276;BME280;36472;52.170;20.884;2023-04-19T02:05:10;100734.69;;;9.28;100.00
21276;BME280;36472;52.170;20.884;2023-04-19T02:07:39;100739.84;;;9.29;100.00
21276;BME280;36472;52.170;20.884;2023-04-19T02:10:10;100749.41;;;9.30;100.00
21276;BME280;36472;52.170;20.884;2023-04-19T02:12:41;100735.59;;;9.27;100.00
21276;BME280;36472;52.170;20.884;2023-04-19T02:15:10;100734.94;;;9.23;100.00
21276;BME280;36472;52.170;20.884;2023-04-19T02:17:39;100720.09;;;9.22;100.00
21276;BME280;36472;52.170;20.884;2023-04-19T02:20:09;100720.91;;;9.24;100.00
21276;BME280;36472;52.170;20.884;2023-04-19T02:22:38;100720.03;;;9.24;100.00
21276;BME280;36472;52.170;20.884;2023-04-19T02:25:07;100719.78;;;9.28;100.00
21276;BME280;36472;52.170;20.884;2023-04-19T02:27:36;100706.50;;;9.31;100.00
21276;BME280;36472;52.170;20.884;2023-04-19T02:30:08;100714.28;;;9.33;100.00
21276;BME280;36472;52.170;20.884;2023-04-19T02:32:37;100705.56;;;9.32;100.00
21276;BME280;36472;52.170;20.884;2023-04-19T02:35:07;100704.63;;;9.33;100.00
21276;BME280;36472;52.170;20.884;2023-04-19T02:37:36;100699.41;;;9.33;100.00
21276;BME280;36472;52.170;20.884;2023-04-19T02:40:06;100696.03;;;9.31;100.00
21276;BME280;36472;52.170;20.884;2023-04-19T02:42:35;100694.41;;;9.29;100.00
21276;BME280;36472;52.170;20.884;2023-04-19T02:45:08;100687.19;;;9.32;100.00
21276;BME280;36472;52.170;20.884;2023-04-19T02:47:37;100681.38;;;9.27;100.00
21276;BME280;36472;52.170;20.884;2023-04-19T02:50:07;100685.69;;;9.28;100.00
21276;BME280;36472;52.170;20.884;2023-04-19T02:52:42;100679.09;;;9.21;100.00
21276;BME280;36472;52.170;20.884;2023-04-19T02:55:11;100678.25;;;9.21;100.00
21276;BME280;36472;52.170;20.884;2023-04-19T02:57:40;100670.47;;;9.19;100.00
21276;BME280;36472;52.170;20.884;2023-04-19T03:00:13;100672.41;;;9.15;100.00
21276;BME280;36472;52.170;20.884;2023-04-19T03:02:51;100674.34;;;9.12;100.00
21276;BME280;36472;52.170;20.884;2023-04-19T03:05:21;100660.16;;;9.16;100.00
21276;BME280;36472;52.170;20.884;2023-04-19T03:07:49;100654.22;;;9.12;100.00
21276;BME280;36472;52.170;20.884;2023-04-19T03:10:18;100666.22;;;9.16;100.00
21276;BME280;36472;52.170;20.884;2023-04-19T03:12:47;100649.16;;;9.09;100.00
21276;BME280;36472;52.170;20.884;2023-04-19T03:15:18;100651.84;;;9.08;100.00
21276;BME280;36472;52.170;20.884;2023-04-19T03:17:48;100649.16;;;9.09;100.00
21276;BME280;36472;52.170;20.884;2023-04-19T03:20:21;100647.97;;;9.15;100.00
21276;BME280;36472;52.170;20.884;2023-04-19T03:22:50;100658.38;;;9.16;100.00
21276;BME280;36472;52.170;20.884;2023-04-19T03:25:20;100642.63;;;9.16;100.00
21276;BME280;36472;52.170;20.884;2023-04-19T03:27:58;100644.41;;;9.16;100.00
21276;BME280;36472;52.170;20.884;2023-04-19T03:31:06;100638.06;;;9.04;100.00
21276;BME280;36472;52.170;20.884;2023-04-19T03:33:36;100639.66;;;9.07;100.00
21276;BME280;36472;52.170;20.884;2023-04-19T03:36:05;100635.59;;;9.01;100.00
21276;BME280;36472;52.170;20.884;2023-04-19T03:38:36;100632.06;;;9.02;100.00
21276;BME280;36472;52.170;20.884;2023-04-19T03:41:18;100633.91;;;9.00;100.00
21276;BME280;36472;52.170;20.884;2023-04-19T03:43:49;100627.81;;;8.99;100.00
21276;BME280;36472;52.170;20.884;2023-04-19T03:46:20;100632.75;;;9.06;100.00
21276;BME280;36472;52.170;20.884;2023-04-19T03:48:49;100624.72;;;9.09;100.00
21276;BME280;36472;52.170;20.884;2023-04-19T03:51:20;100632.59;;;9.09;100.00
21276;BME280;36472;52.170;20.884;2023-04-19T03:53:48;100626.31;;;9.11;100.00
21276;BME280;36472;52.170;20.884;2023-04-19T03:56:19;100630.13;;;9.06;100.00
21276;BME280;36472;52.170;20.884;2023-04-19T03:58:50;100616.34;;;9.02;100.00
21276;BME280;36472;52.170;20.884;2023-04-19T04:01:21;100616.59;;;8.97;100.00
21276;BME280;36472;52.170;20.884;2023-04-19T04:03:52;100623.53;;;8.98;100.00
21276;BME280;36472;52.170;20.884;2023-04-19T04:06:21;100616.50;;;8.99;100.00
21276;BME280;36472;52.170;20.884;2023-04-19T04:08:50;100615.25;;;8.90;100.00
21276;BME280;36472;52.170;20.884;2023-04-19T04:11:19;100618.03;;;8.87;100.00
21276;BME280;36472;52.170;20.884;2023-04-19T04:13:48;100614.13;;;8.78;100.00
21276;BME280;36472;52.170;20.884;2023-04-19T04:16:23;100611.50;;;8.78;100.00
21276;BME280;36472;52.170;20.884;2023-04-19T04:18:53;100615.22;;;8.74;100.00
21276;BME280;36472;52.170;20.884;2023-04-19T04:21:25;100612.44;;;8.77;100.00
21276;BME280;36472;52.170;20.884;2023-04-19T04:23:59;100608.06;;;8.78;100.00
21276;BME280;36472;52.170;20.884;2023-04-19T04:26:37;100610.69;;;8.78;100.00
21276;BME280;36472;52.170;20.884;2023-04-19T04:29:28;100609.88;;;8.76;100.00
21276;BME280;36472;52.170;20.884;2023-04-19T04:32:01;100612.34;;;8.79;100.00
21276;BME280;36472;52.170;20.884;2023-04-19T04:34:38;100608.81;;;8.80;100.00
21276;BME280;36472;52.170;20.884;2023-04-19T04:37:13;100611.66;;;8.75;100.00
21276;BME280;36472;52.170;20.884;2023-04-19T04:39:42;100610.91;;;8.73;100.00
21276;BME280;36472;52.170;20.884;2023-04-19T04:42:12;100612.78;;;8.71;100.00
21276;BME280;36472;52.170;20.884;2023-04-19T04:44:41;100607.47;;;8.73;100.00
21276;BME280;36472;52.170;20.884;2023-04-19T04:47:13;100614.28;;;8.75;100.00
21276;BME280;36472;52.170;20.884;2023-04-19T04:49:49;100609.88;;;8.76;100.00
21276;BME280;36472;52.170;20.884;2023-04-19T04:52:19;100604.84;;;8.73;100.00
21276;BME280;36472;52.170;20.884;2023-04-19T04:54:59;100607.09;;;8.79;100.00
21276;BME280;36472;52.170;20.884;2023-04-19T04:57:32;100609.81;;;8.77;100.00
21276;BME280;36472;52.170;20.884;2023-04-19T05:00:05;100602.81;;;8.78;100.00
21276;BME280;36472;52.170;20.884;2023-04-19T05:02:45;100600.19;;;8.78;100.00
21276;BME280;36472;52.170;20.884;2023-04-19T05:05:14;100606.44;;;8.75;100.00
21276;BME280;36472;52.170;20.884;2023-04-19T05:07:43;100601.09;;;8.77;100.00
21276;BME280;36472;52.170;20.884;2023-04-19T05:10:13;100600.50;;;8.72;100.00
21276;BME280;36472;52.170;20.884;2023-04-19T05:12:45;100592.13;;;8.65;100.00
21276;BME280;36472;52.170;20.884;2023-04-19T05:15:14;100593.91;;;8.65;100.00
21276;BME280;36472;52.170;20.884;2023-04-19T05:17:49;100592.81;;;8.69;100.00
21276;BME280;36472;52.170;20.884;2023-04-19T05:20:20;100588.41;;;8.69;100.00
21276;BME280;36472;52.170;20.884;2023-04-19T05:22:59;100584.94;;;8.69;100.00
21276;BME280;36472;52.170;20.884;2023-04-19T05:25:33;100598.13;;;8.67;100.00
21276;BME280;36472;52.170;20.884;2023-04-19T05:28:03;100587.41;;;8.72;100.00
21276;BME280;36472;52.170;20.884;2023-04-19T05:30:41;100585.53;;;8.74;100.00
21276;BME280;36472;52.170;20.884;2023-04-19T05:33:11;100585.53;;;8.74;100.00
21276;BME280;36472;52.170;20.884;2023-04-19T05:35:40;100576.84;;;8.73;100.00
21276;BME280;36472;52.170;20.884;2023-04-19T05:38:09;100583.16;;;8.69;100.00
21276;BME280;36472;52.170;20.884;2023-04-19T05:40:38;100584.19;;;8.67;100.00
21276;BME280;36472;52.170;20.884;2023-04-19T05:43:07;100577.34;;;8.64;100.00
21276;BME280;36472;52.170;20.884;2023-04-19T05:45:37;100576.66;;;8.60;100.00
21276;BME280;36472;52.170;20.884;2023-04-19T05:48:06;100574.03;;;8.60;100.00
21276;BME280;36472;52.170;20.884;2023-04-19T05:50:42;100572.97;;;8.65;100.00
21276;BME280;36472;52.170;20.884;2023-04-19T05:53:26;100572.28;;;8.61;100.00
21276;BME280;36472;52.170;20.884;2023-04-19T05:55:56;100577.44;;;8.63;100.00
21276;BME280;36472;52.170;20.884;2023-04-19T05:58:25;100569.59;;;8.63;100.00
21276;BME280;36472;52.170;20.884;2023-04-19T06:00:54;100572.88;;;8.66;100.00
21276;BME280;36472;52.170;20.884;2023-04-19T06:03:23;100567.13;;;8.59;100.00
21276;BME280;36472;52.170;20.884;2023-04-19T06:06:00;100563.16;;;8.68;100.00
21276;BME280;36472;52.170;20.884;2023-04-19T06:08:29;100557.47;;;8.76;100.00
21276;BME280;36472;52.170;20.884;2023-04-19T06:10:58;100557.16;;;8.82;100.00
21276;BME280;36472;52.170;20.884;2023-04-19T06:13:42;100552.91;;;8.79;100.00
21276;BME280;36472;52.170;20.884;2023-04-19T06:16:12;100560.09;;;8.76;100.00
21276;BME280;36472;52.170;20.884;2023-04-19T06:18:41;100555.66;;;8.78;100.00
21276;BME280;36472;52.170;20.884;2023-04-19T06:21:11;100562.91;;;8.73;100.00
21276;BME280;36472;52.170;20.884;2023-04-19T06:23:40;100566.63;;;8.69;100.00
21276;BME280;36472;52.170;20.884;2023-04-19T06:26:08;100561.44;;;8.67;100.00
21276;BME280;36472;52.170;20.884;2023-04-19T06:28:37;100564.94;;;8.68;100.00
21276;BME280;36472;52.170;20.884;2023-04-19T06:31:06;100556.38;;;8.64;100.00
21276;BME280;36472;52.170;20.884;2023-04-19T06:33:35;100564.94;;;8.68;100.00
21276;BME280;36472;52.170;20.884;2023-04-19T06:36:05;100576.25;;;8.68;100.00
21276;BME280;36472;52.170;20.884;2023-04-19T06:38:35;100574.31;;;8.72;100.00
21276;BME280;36472;52.170;20.884;2023-04-19T06:41:05;100572.44;;;8.74;100.00
21276;BME280;36472;52.170;20.884;2023-04-19T06:43:34;100576.50;;;8.79;100.00
21276;BME280;36472;52.170;20.884;2023-04-19T06:46:03;100566.59;;;8.85;100.00
21276;BME280;36472;52.170;20.884;2023-04-19T06:48:33;100572.03;;;8.82;100.00
21276;BME280;36472;52.170;20.884;2023-04-19T06:51:02;100570.84;;;8.87;100.00
21276;BME280;36472;52.170;20.884;2023-04-19T06:53:31;100569.72;;;8.91;100.00
21276;BME280;36472;52.170;20.884;2023-04-19T06:56:03;100569.81;;;8.90;100.00
21276;BME280;36472;52.170;20.884;2023-04-19T06:58:32;100572.03;;;8.97;100.00
21276;BME280;36472;52.170;20.884;2023-04-19T07:01:03;100577.94;;;9.01;100.00
21276;BME280;36472;52.170;20.884;2023-04-19T07:03:32;100585.19;;;9.12;100.00
21276;BME280;36472;52.170;20.884;2023-04-19T07:06:02;100578.88;;;9.16;100.00
21276;BME280;36472;52.170;20.884;2023-04-19T07:08:31;100580.44;;;9.18;100.00
21276;BME280;36472;52.170;20.884;2023-04-19T07:11:17;100576.91;;;9.20;100.00
21276;BME280;36472;52.170;20.884;2023-04-19T07:13:49;100570.63;;;9.22;100.00
21276;BME280;36472;52.170;20.884;2023-04-19T07:16:19;100575.22;;;9.18;100.00
21276;BME280;36472;52.170;20.884;2023-04-19T07:18:48;100576.47;;;9.27;100.00
21276;BME280;36472;52.170;20.884;2023-04-19T07:21:17;100572.75;;;9.31;100.00
21276;BME280;36472;52.170;20.884;2023-04-19T07:23:46;100569.00;;;9.35;100.00
21276;BME280;36472;52.170;20.884;2023-04-19T07:26:17;100569.50;;;9.42;100.00
21276;BME280;36472;52.170;20.884;2023-04-19T07:28:46;100572.78;;;9.46;100.00
21276;BME280;36472;52.170;20.884;2023-04-19T07:31:14;100569.06;;;9.50;100.00
21276;BME280;36472;52.170;20.884;2023-04-19T07:33:44;100565.16;;;9.57;100.00
21276;BME280;36472;52.170;20.884;2023-04-19T07:36:13;100571.41;;;9.54;100.00
21276;BME280;36472;52.170;20.884;2023-04-19T07:38:42;100569.28;;;9.61;100.00
21276;BME280;36472;52.170;20.884;2023-04-19T07:41:11;100571.06;;;9.61;100.00
21276;BME280;36472;52.170;20.884;2023-04-19T07:43:41;100577.13;;;9.61;100.00
21276;BME280;36472;52.170;20.884;2023-04-19T07:46:11;100571.81;;;9.63;100.00
21276;BME280;36472;52.170;20.884;2023-04-19T07:48:42;100572.75;;;9.62;100.00
21276;BME280;36472;52.170;20.884;2023-04-19T07:51:14;100572.06;;;9.58;100.00
21276;BME280;36472;52.170;20.884;2023-04-19T07:53:45;100570.97;;;9.62;100.00
21276;BME280;36472;52.170;20.884;2023-04-19T07:56:14;100581.00;;;9.70;100.00
21276;BME280;36472;52.170;20.884;2023-04-19T07:58:45;100582.44;;;9.76;100.00
21276;BME280;36472;52.170;20.884;2023-04-19T08:01:31;100578.69;;;9.80;100.00
21276;BME280;36472;52.170;20.884;2023-04-19T08:04:00;100582.25;;;9.79;100.00
21276;BME280;36472;52.170;20.884;2023-04-19T08:06:29;100574.34;;;9.79;100.00
21276;BME280;36472;52.170;20.884;2023-04-19T08:08:59;100576.81;;;9.82;100.00
21276;BME280;36472;52.170;20.884;2023-04-19T08:11:28;100579.09;;;9.88;100.00
21276;BME280;36472;52.170;20.884;2023-04-19T08:13:58;100579.09;;;9.88;100.00
21276;BME280;36472;52.170;20.884;2023-04-19T08:16:30;100582.09;;;9.96;100.00
21276;BME280;36472;52.170;20.884;2023-04-19T08:19:19;100573.09;;;10.00;100.00
21276;BME280;36472;52.170;20.884;2023-04-19T08:21:48;100575.44;;;10.05;100.00
21276;BME280;36472;52.170;20.884;2023-04-19T08:24:17;100577.81;;;10.09;100.00
21276;BME280;36472;52.170;20.884;2023-04-19T08:26:45;100568.78;;;10.14;100.00
21276;BME280;36472;52.170;20.884;2023-04-19T08:29:21;100577.16;;;10.20;100.00
21276;BME280;36472;52.170;20.884;2023-04-19T08:31:50;100570.00;;;10.22;100.00
21276;BME280;36472;52.170;20.884;2023-04-19T08:34:20;100568.44;;;10.20;99.26
21276;BME280;36472;52.170;20.884;2023-04-19T08:36:49;100575.09;;;10.25;99.34
21276;BME280;36472;52.170;20.884;2023-04-19T08:39:31;100574.25;;;10.25;100.00
21276;BME280;36472;52.170;20.884;2023-04-19T08:42:04;100564.78;;;10.37;100.00
21276;BME280;36472;52.170;20.884;2023-04-19T08:44:53;100573.50;;;10.52;100.00
21276;BME280;36472;52.170;20.884;2023-04-19T08:47:45;100571.06;;;10.63;100.00
21276;BME280;36472;52.170;20.884;2023-04-19T08:50:28;100575.06;;;10.69;100.00
21276;BME280;36472;52.170;20.884;2023-04-19T08:53:11;100573.00;;;10.74;100.00
21276;BME280;36472;52.170;20.884;2023-04-19T08:55:53;100575.25;;;10.80;99.42
21276;BME280;36472;52.170;20.884;2023-04-19T08:58:45;100568.84;;;10.84;99.78
21276;BME280;36472;52.170;20.884;2023-04-19T09:01:18;100571.56;;;10.97;98.73
21276;BME280;36472;52.170;20.884;2023-04-19T09:03:50;100575.84;;;10.98;95.93
21276;BME280;36472;52.170;20.884;2023-04-19T09:06:35;100572.75;;;11.06;95.73
21276;BME280;36472;52.170;20.884;2023-04-19T09:09:14;100568.16;;;11.22;94.98
21276;BME280;36472;52.170;20.884;2023-04-19T09:12:16;100574.03;;;11.53;93.23
21276;BME280;36472;52.170;20.884;2023-04-19T09:14:46;100576.91;;;11.63;92.63
21276;BME280;36472;52.170;20.884;2023-04-19T09:17:19;100580.69;;;11.71;91.77
21276;BME280;36472;52.170;20.884;2023-04-19T09:19:48;100577.13;;;11.85;91.44
21276;BME280;36472;52.170;20.884;2023-04-19T09:22:18;100577.66;;;11.90;90.95
21276;BME280;36472;52.170;20.884;2023-04-19T09:24:47;100582.31;;;11.87;87.93
21276;BME280;36472;52.170;20.884;2023-04-19T09:27:26;100579.34;;;11.78;88.16
21276;BME280;36472;52.170;20.884;2023-04-19T09:29:56;100579.25;;;11.80;91.21
21276;BME280;36472;52.170;20.884;2023-04-19T09:32:42;100578.63;;;11.89;90.17
21276;BME280;36472;52.170;20.884;2023-04-19T09:35:14;100580.13;;;11.93;88.52
21276;BME280;36472;52.170;20.884;2023-04-19T09:37:57;100583.91;;;12.02;88.65
21276;BME280;36472;52.170;20.884;2023-04-19T09:40:33;100579.28;;;12.06;89.25
21276;BME280;36472;52.170;20.884;2023-04-19T09:43:02;100580.06;;;12.08;89.12
21276;BME280;36472;52.170;20.884;2023-04-19T09:45:41;100578.66;;;12.15;88.91
21276;BME280;36472;52.170;20.884;2023-04-19T09:48:12;100580.13;;;12.19;89.15
21276;BME280;36472;52.170;20.884;2023-04-19T09:50:52;100577.41;;;12.21;88.93
21276;BME280;36472;52.170;20.884;2023-04-19T09:53:30;100585.94;;;12.24;88.05
21276;BME280;36472;52.170;20.884;2023-04-19T09:56:01;100586.13;;;12.21;87.73
21276;BME280;36472;52.170;20.884;2023-04-19T09:58:33;100584.38;;;12.22;86.91
21276;BME280;36472;52.170;20.884;2023-04-19T10:01:18;100583.72;;;12.18;88.66
21276;BME280;36472;52.170;20.884;2023-04-19T10:03:51;100580.97;;;12.07;86.88
21276;BME280;36472;52.170;20.884;2023-04-19T10:06:22;100583.91;;;12.02;82.99
21276;BME280;36472;52.170;20.884;2023-04-19T10:08:54;100583.41;;;11.97;86.09
21276;BME280;36472;52.170;20.884;2023-04-19T10:11:26;100583.91;;;12.02;87.95
21276;BME280;36472;52.170;20.884;2023-04-19T10:14:01;100583.72;;;12.05;86.31
21276;BME280;36472;52.170;20.884;2023-04-19T10:16:32;100582.44;;;12.11;87.37
21276;BME280;36472;52.170;20.884;2023-04-19T10:19:08;100578.56;;;12.16;87.78
21276;BME280;36472;52.170;20.884;2023-04-19T10:21:40;100582.59;;;12.09;84.79
21276;BME280;36472;52.170;20.884;2023-04-19T10:24:12;100586.56;;;12.15;86.77
21276;BME280;36472;52.170;20.884;2023-04-19T10:27:09;100595.00;;;12.20;87.64
21276;BME280;36472;52.170;20.884;2023-04-19T10:29:57;100594.47;;;12.15;86.21
21276;BME280;36472;52.170;20.884;2023-04-19T10:32:27;100589.94;;;12.04;85.45
21276;BME280;36472;52.170;20.884;2023-04-19T10:35:06;100595.72;;;11.96;83.96
21276;BME280;36472;52.170;20.884;2023-04-19T10:37:39;100597.72;;;11.93;83.84
21276;BME280;36472;52.170;20.884;2023-04-19T10:40:09;100593.59;;;11.89;84.04
21276;BME280;36472;52.170;20.884;2023-04-19T10:43:16;100604.09;;;11.76;84.49
21276;BME280;36472;52.170;20.884;2023-04-19T10:45:46;100602.00;;;11.81;85.44
21276;BME280;36472;52.170;20.884;2023-04-19T10:48:38;100600.72;;;11.87;84.62
21276;BME280;36472;52.170;20.884;2023-04-19T10:51:16;100601.91;;;11.83;85.90
21276;BME280;36472;52.170;20.884;2023-04-19T10:53:54;100607.47;;;11.78;86.33
21276;BME280;36472;52.170;20.884;2023-04-19T10:56:59;100600.53;;;11.90;85.94
21276;BME280;36472;52.170;20.884;2023-04-19T10:59:30;100595.44;;;12.01;85.94
21276;BME280;36472;52.170;20.884;2023-04-19T11:02:01;100604.28;;;12.13;83.95
21276;BME280;36472;52.170;20.884;2023-04-19T11:04:59;100606.81;;;12.27;83.98
21276;BME280;36472;52.170;20.884;2023-04-19T11:07:38;100609.22;;;12.30;82.81
21276;BME280;36472;52.170;20.884;2023-04-19T11:10:09;100608.91;;;12.22;83.36
21276;BME280;36472;52.170;20.884;2023-04-19T11:12:43;100610.59;;;12.23;84.65
21276;BME280;36472;52.170;20.884;2023-04-19T11:15:12;100614.06;;;12.24;83.19
21276;BME280;36472;52.170;20.884;2023-04-19T11:17:41;100613.44;;;12.07;83.71
21276;BME280;36472;52.170;20.884;2023-04-19T11:20:11;100614.50;;;12.05;84.44
21276;BME280;36472;52.170;20.884;2023-04-19T11:22:45;100616.16;;;12.06;84.52
21276;BME280;36472;52.170;20.884;2023-04-19T11:25:16;100620.28;;;12.10;84.60
21276;BME280;36472;52.170;20.884;2023-04-19T11:27:47;100617.34;;;12.14;83.48
21276;BME280;36472;52.170;20.884;2023-04-19T11:30:19;100616.38;;;12.15;84.37
21276;BME280;36472;52.170;20.884;2023-04-19T11:32:52;100618.50;;;12.23;84.41
21276;BME280;36472;52.170;20.884;2023-04-19T11:35:23;100615.03;;;12.35;81.45
21276;BME280;36472;52.170;20.884;2023-04-19T11:37:57;100619.44;;;12.48;81.35
21276;BME280;36472;52.170;20.884;2023-04-19T11:40:26;100608.78;;;12.62;81.44
21276;BME280;36472;52.170;20.884;2023-04-19T11:42:56;100609.16;;;12.82;80.52
21276;BME280;36472;52.170;20.884;2023-04-19T11:45:30;100610.78;;;12.96;80.23
21276;BME280;36472;52.170;20.884;2023-04-19T11:48:06;100607.16;;;13.09;79.93
21276;BME280;36472;52.170;20.884;2023-04-19T11:50:37;100605.22;;;13.24;78.15
21276;BME280;36472;52.170;20.884;2023-04-19T11:53:14;100609.09;;;13.56;76.57
21276;BME280;36472;52.170;20.884;2023-04-19T11:55:45;100606.84;;;14.09;73.99
21276;BME280;36472;52.170;20.884;2023-04-19T11:58:25;100601.47;;;14.33;74.13
21276;BME280;36472;52.170;20.884;2023-04-19T12:01:01;100609.50;;;14.54;73.49
21276;BME280;36472;52.170;20.884;2023-04-19T12:03:31;100611.09;;;14.57;73.53
21276;BME280;36472;52.170;20.884;2023-04-19T12:06:02;100604.09;;;14.33;70.52
21276;BME280;36472;52.170;20.884;2023-04-19T12:08:41;100605.19;;;14.19;71.80
21276;BME280;36472;52.170;20.884;2023-04-19T12:11:10;100611.41;;;14.18;72.83
21276;BME280;36472;52.170;20.884;2023-04-19T12:13:39;100601.78;;;14.17;74.00
21276;BME280;36472;52.170;20.884;2023-04-19T12:16:10;100612.97;;;14.10;73.60
21276;BME280;36472;52.170;20.884;2023-04-19T12:18:45;100611.88;;;14.12;73.79
21276;BME280;36472;52.170;20.884;2023-04-19T12:21:26;100611.50;;;13.94;71.28
21276;BME280;36472;52.170;20.884;2023-04-19T12:23:59;100618.09;;;13.89;72.80
21276;BME280;36472;52.170;20.884;2023-04-19T12:26:30;100624.22;;;13.89;73.09
21276;BME280;36472;52.170;20.884;2023-04-19T12:29:01;100622.53;;;13.88;72.96
21276;BME280;36472;52.170;20.884;2023-04-19T12:31:30;100622.13;;;13.81;72.30
21276;BME280;36472;52.170;20.884;2023-04-19T12:34:00;100630.66;;;13.74;72.29
21276;BME280;36472;52.170;20.884;2023-04-19T12:36:29;100631.50;;;13.74;73.11
21276;BME280;36472;52.170;20.884;2023-04-19T12:38:59;100628.13;;;13.72;74.06
21276;BME280;36472;52.170;20.884;2023-04-19T12:41:28;100631.22;;;13.66;73.50
21276;BME280;36472;52.170;20.884;2023-04-19T12:43:57;100622.56;;;13.64;74.90
21276;BME280;36472;52.170;20.884;2023-04-19T12:46:26;100634.56;;;13.68;76.32
21276;BME280;36472;52.170;20.884;2023-04-19T12:48:55;100634.47;;;13.70;77.14
21276;BME280;36472;52.170;20.884;2023-04-19T12:51:23;100629.56;;;13.76;75.76
21276;BME280;36472;52.170;20.884;2023-04-19T12:53:53;100632.69;;;13.81;74.32
21276;BME280;36472;52.170;20.884;2023-04-19T12:56:23;100622.13;;;13.81;74.25
21276;BME280;36472;52.170;20.884;2023-04-19T12:58:52;100630.28;;;13.78;75.12
21276;BME280;36472;52.170;20.884;2023-04-19T13:01:21;100634.13;;;13.74;74.48
21276;BME280;36472;52.170;20.884;2023-04-19T13:03:51;100625.47;;;13.72;75.07
21276;BME280;36472;52.170;20.884;2023-04-19T13:06:23;100627.63;;;13.67;74.66